Time;durP1;ratioP1;P1;durP2;ratioP2;P2;SDS_P1;SDS_P2;PMS_P1;PMS_P2;Temp;Humidity;BMP_temperature;BMP_pressure;BME280_temperature;BME280_humidity;BME280_pressure;Samples;Min_cycle;Max_cycle;Signal;HPM_P1;HPM_P2
2022/08/18 00:02:11;;;;;;;9.80;8.05;;;;;;;;;;5074885;28;20025;-64
2022/08/18 00:04:37;;;;;;;9.77;8.38;;;;;;;;;;5073426;28;20028;-63
2022/08/18 00:07:05;;;;;;;12.18;8.10;;;;;;;;;;5074593;28;20044;-65
2022/08/18 00:09:33;;;;;;;8.25;7.43;;;;;;;;;;5074683;28;20024;-63
2022/08/18 00:12:02;;;;;;;10.98;7.32;;;;;;;;;;5074518;28;20025;-63
2022/08/18 00:14:28;;;;;;;11.52;7.43;;;;;;;;;;5074645;28;20024;-63
2022/08/18 00:16:53;;;;;;;8.60;7.70;;;;;;;;;;5074461;28;20107;-64
2022/08/18 00:19:21;;;;;;;11.73;7.70;;;;;;;;;;5074232;28;20067;-63
2022/08/18 00:21:47;;;;;;;10.30;8.13;;;;;;;;;;5074358;28;20024;-63
2022/08/18 00:24:12;;;;;;;9.45;7.90;;;;;;;;;;5074228;28;20107;-63
2022/08/18 00:26:37;;;;;;;9.52;7.80;;;;;;;;;;5074248;28;20021;-63
2022/08/18 00:29:03;;;;;;;9.00;8.00;;;;;;;;;;5074246;28;20493;-64
2022/08/18 00:31:30;;;;;;;11.75;8.75;;;;;;;;;;5073791;28;20074;-63
2022/08/18 00:33:55;;;;;;;13.75;8.00;;;;;;;;;;5073825;28;20017;-64
2022/08/18 00:36:21;;;;;;;11.88;7.57;;;;;;;;;;5074189;28;20031;-63
2022/08/18 00:38:46;;;;;;;15.52;8.57;;;;;;;;;;5074034;28;20103;-64
2022/08/18 00:41:12;;;;;;;10.90;7.60;;;;;;;;;;5073525;28;20029;-64
2022/08/18 00:43:44;;;;;;;10.20;8.20;;;;;;;;;;5074089;28;20089;-63
2022/08/18 00:46:18;;;;;;;14.73;7.82;;;;;;;;;;5073883;28;20174;-63
2022/08/18 00:48:45;;;;;;;9.60;7.72;;;;;;;;;;5073608;28;20024;-64
2022/08/18 00:51:28;;;;;;;8.55;7.65;;;;;;;;;;5073627;28;20483;-65
2022/08/18 00:54:15;;;;;;;11.18;8.43;;;;;;;;;;5073624;28;20028;-64
2022/08/18 00:56:54;;;;;;;11.63;8.02;;;;;;;;;;5073630;28;20021;-66
2022/08/18 00:59:36;;;;;;;10.60;7.95;;;;;;;;;;5073676;28;20024;-63
2022/08/18 01:02:05;;;;;;;12.02;8.32;;;;;;;;;;5073365;28;20025;-64
2022/08/18 01:04:38;;;;;;;13.93;8.15;;;;;;;;;;5073573;28;20103;-64
2022/08/18 01:07:19;;;;;;;11.02;8.20;;;;;;;;;;5073524;28;20035;-64
2022/08/18 01:09:52;;;;;;;10.20;8.02;;;;;;;;;;5073136;28;20081;-63
2022/08/18 01:12:18;;;;;;;9.98;8.30;;;;;;;;;;5073252;28;20028;-63
2022/08/18 01:14:45;;;;;;;9.00;8.07;;;;;;;;;;5073310;28;20379;-64
2022/08/18 01:22:46;;;;;;;12.27;8.90;;;;;;;;;;5073416;28;20082;-63
2022/08/18 01:27:57;;;;;;;13.13;8.38;;;;;;;;;;5073338;28;20028;-65
2022/08/18 01:30:24;;;;;;;12.18;8.80;;;;;;;;;;5073142;28;20024;-64
2022/08/18 01:32:51;;;;;;;12.18;8.70;;;;;;;;;;5072503;28;20037;-64
2022/08/18 01:35:19;;;;;;;12.98;9.32;;;;;;;;;;5073086;28;20029;-64
2022/08/18 01:37:45;;;;;;;11.52;8.80;;;;;;;;;;5072923;28;20085;-64
2022/08/18 01:40:13;;;;;;;11.15;9.35;;;;;;;;;;5073030;28;20128;-63
2022/08/18 01:42:42;;;;;;;10.20;8.60;;;;;;;;;;5072690;28;20071;-64
2022/08/18 01:45:09;;;;;;;13.82;9.18;;;;;;;;;;5072882;28;20121;-64
2022/08/18 01:47:35;;;;;;;14.52;8.98;;;;;;;;;;5072637;28;20405;-62
2022/08/18 01:50:02;;;;;;;10.43;9.05;;;;;;;;;;5072884;28;20021;-63
2022/08/18 01:52:28;;;;;;;10.80;8.75;;;;;;;;;;5072437;28;20056;-64
2022/08/18 01:54:55;;;;;;;10.73;8.80;;;;;;;;;;5071374;28;20028;-64
2022/08/18 01:57:21;;;;;;;10.40;9.07;;;;;;;;;;5072679;28;20028;-65
2022/08/18 01:59:47;;;;;;;14.13;8.88;;;;;;;;;;5072810;28;20032;-64
2022/08/18 02:02:19;;;;;;;13.90;8.98;;;;;;;;;;5072366;28;20475;-64
2022/08/18 02:04:45;;;;;;;12.32;9.70;;;;;;;;;;5072402;28;20475;-63
2022/08/18 02:07:13;;;;;;;10.75;8.80;;;;;;;;;;5072766;28;20035;-63
2022/08/18 02:09:41;;;;;;;12.13;9.07;;;;;;;;;;5072494;28;20099;-63
2022/08/18 02:12:07;;;;;;;11.70;9.27;;;;;;;;;;5072457;28;20043;-64
2022/08/18 02:14:34;;;;;;;11.48;9.80;;;;;;;;;;5072423;28;20040;-65
2022/08/18 02:17:03;;;;;;;12.90;9.40;;;;;;;;;;5072704;28;20475;-64
2022/08/18 02:19:45;;;;;;;16.08;9.38;;;;;;;;;;5072654;28;20531;-64
2022/08/18 02:22:13;;;;;;;13.80;9.43;;;;;;;;;;5075834;28;20086;-66
2022/08/18 02:24:39;;;;;;;14.52;10.40;;;;;;;;;;5076589;28;20033;-65
2022/08/18 02:27:06;;;;;;;13.50;9.93;;;;;;;;;;5076542;28;20047;-65
2022/08/18 02:29:32;;;;;;;12.38;9.73;;;;;;;;;;5076385;28;20028;-64
2022/08/18 02:31:58;;;;;;;11.30;9.57;;;;;;;;;;5073734;28;20031;-64
2022/08/18 02:34:24;;;;;;;11.82;10.02;;;;;;;;;;5056431;28;20028;-64
2022/08/18 02:36:50;;;;;;;17.63;9.98;;;;;;;;;;5056482;28;20024;-65
2022/08/18 02:39:15;;;;;;;13.60;9.98;;;;;;;;;;5056382;28;20104;-65
2022/08/18 02:41:41;;;;;;;13.68;10.40;;;;;;;;;;5056255;28;20025;-64
2022/08/18 02:44:07;;;;;;;13.43;10.65;;;;;;;;;;5056095;28;20430;-65
2022/08/18 02:46:34;;;;;;;14.63;10.45;;;;;;;;;;5056150;28;20086;-64
2022/08/18 02:48:59;;;;;;;15.90;10.75;;;;;;;;;;5055973;28;20021;-64
2022/08/18 02:51:25;;;;;;;13.02;10.90;;;;;;;;;;5055816;28;20488;-64
2022/08/18 02:53:51;;;;;;;16.50;10.07;;;;;;;;;;5056232;28;20408;-65
2022/08/18 02:56:23;;;;;;;14.10;10.90;;;;;;;;;;5056186;28;20120;-63
2022/08/18 02:59:10;;;;;;;16.63;11.32;;;;;;;;;;5055557;28;20057;-64
2022/08/18 03:01:38;;;;;;;13.05;11.27;;;;;;;;;;5055899;28;20031;-63
2022/08/18 03:04:06;;;;;;;13.27;10.13;;;;;;;;;;5055805;28;20122;-64
2022/08/18 03:06:35;;;;;;;15.52;11.05;;;;;;;;;;5055787;28;20075;-64
2022/08/18 03:09:04;;;;;;;17.02;11.35;;;;;;;;;;5055794;28;20041;-63
2022/08/18 03:11:30;;;;;;;15.18;10.32;;;;;;;;;;5055587;28;20060;-64
2022/08/18 03:13:56;;;;;;;13.82;11.35;;;;;;;;;;5055518;28;20472;-63
2022/08/18 03:16:23;;;;;;;15.57;11.38;;;;;;;;;;5055846;28;20029;-64
2022/08/18 03:18:50;;;;;;;18.92;12.00;;;;;;;;;;5055518;28;20074;-65
2022/08/18 03:21:20;;;;;;;17.35;11.63;;;;;;;;;;5055322;28;20030;-64
2022/08/18 03:23:46;;;;;;;18.42;12.73;;;;;;;;;;5055497;28;20029;-63
2022/08/18 03:26:14;;;;;;;15.68;11.48;;;;;;;;;;5055666;28;20033;-63
2022/08/18 03:28:44;;;;;;;13.38;11.80;;;;;;;;;;5055286;28;20020;-64
2022/08/18 03:31:13;;;;;;;14.02;11.10;;;;;;;;;;5055183;28;20036;-64
2022/08/18 03:33:39;;;;;;;15.75;11.52;;;;;;;;;;5055431;28;20104;-64
2022/08/18 03:36:07;;;;;;;16.23;11.60;;;;;;;;;;5055174;28;20017;-65
2022/08/18 03:38:33;;;;;;;16.15;11.20;;;;;;;;;;5055389;28;20029;-63
2022/08/18 03:40:58;;;;;;;13.70;11.68;;;;;;;;;;5054958;28;20044;-64
2022/08/18 03:43:24;;;;;;;15.98;12.55;;;;;;;;;;5055036;28;20033;-63
2022/08/18 03:45:50;;;;;;;16.52;11.55;;;;;;;;;;5055113;28;20082;-64
2022/08/18 03:48:15;;;;;;;17.75;12.18;;;;;;;;;;5055089;28;20024;-63
2022/08/18 03:50:41;;;;;;;14.65;12.23;;;;;;;;;;5054961;28;20033;-63
2022/08/18 03:53:07;;;;;;;14.55;11.82;;;;;;;;;;5054791;28;20052;-63
2022/08/18 03:55:32;;;;;;;15.02;12.32;;;;;;;;;;5054749;28;20036;-64
2022/08/18 03:58:01;;;;;;;16.13;11.68;;;;;;;;;;5051913;28;20146;-64
2022/08/18 04:00:30;;;;;;;15.63;12.65;;;;;;;;;;5054868;28;20025;-63
2022/08/18 04:03:02;;;;;;;14.27;12.35;;;;;;;;;;5054597;28;20503;-64
2022/08/18 04:05:33;;;;;;;15.07;12.00;;;;;;;;;;5053589;28;20032;-63
2022/08/18 04:07:59;;;;;;;16.33;12.05;;;;;;;;;;5054458;28;20025;-63
2022/08/18 04:10:26;;;;;;;19.50;12.00;;;;;;;;;;5054346;28;20021;-62
2022/08/18 04:12:53;;;;;;;17.17;12.30;;;;;;;;;;5054232;28;20041;-63
2022/08/18 04:15:19;;;;;;;18.17;12.55;;;;;;;;;;5054650;28;20492;-63
2022/08/18 04:17:47;;;;;;;16.98;12.65;;;;;;;;;;5054397;28;20380;-65
2022/08/18 04:20:15;;;;;;;17.70;12.93;;;;;;;;;;5054322;28;20108;-63
2022/08/18 04:22:43;;;;;;;17.58;12.32;;;;;;;;;;5053143;28;20262;-63
2022/08/18 04:25:08;;;;;;;16.85;12.25;;;;;;;;;;5052764;28;20029;-63
2022/08/18 04:27:35;;;;;;;14.10;11.43;;;;;;;;;;5054430;28;20372;-63
2022/08/18 04:30:01;;;;;;;15.13;12.40;;;;;;;;;;5053759;28;20033;-63
2022/08/18 04:32:29;;;;;;;17.38;12.27;;;;;;;;;;5054136;28;20036;-64
2022/08/18 04:34:55;;;;;;;17.73;12.25;;;;;;;;;;5054195;28;20037;-64
2022/08/18 04:37:21;;;;;;;16.10;12.15;;;;;;;;;;5054075;28;20028;-64
2022/08/18 04:39:46;;;;;;;17.65;12.80;;;;;;;;;;5053764;28;20048;-65
2022/08/18 04:42:13;;;;;;;17.10;12.07;;;;;;;;;;5053735;28;20598;-63
2022/08/18 04:44:39;;;;;;;13.57;11.50;;;;;;;;;;5053408;28;20547;-64
2022/08/18 04:47:06;;;;;;;18.48;12.13;;;;;;;;;;5053891;28;20063;-64
2022/08/18 04:49:32;;;;;;;16.48;11.85;;;;;;;;;;5053851;28;20087;-64
2022/08/18 04:54:42;;;;;;;15.40;12.05;;;;;;;;;;5053524;28;20044;-64
2022/08/18 04:57:09;;;;;;;16.27;11.77;;;;;;;;;;5053725;28;20464;-64
2022/08/18 04:59:35;;;;;;;14.45;12.25;;;;;;;;;;5053582;28;20079;-63
2022/08/18 05:02:04;;;;;;;21.50;13.13;;;;;;;;;;5053547;28;20068;-63
2022/08/18 05:04:30;;;;;;;15.93;12.63;;;;;;;;;;5053686;28;20060;-63
2022/08/18 05:06:56;;;;;;;14.13;12.13;;;;;;;;;;5053458;28;20479;-64
2022/08/18 05:09:21;;;;;;;16.05;12.07;;;;;;;;;;5053196;28;20025;-63
2022/08/18 05:11:47;;;;;;;18.85;12.18;;;;;;;;;;5053387;28;20017;-63
2022/08/18 05:14:12;;;;;;;14.25;12.75;;;;;;;;;;5053388;28;20063;-63
2022/08/18 05:16:39;;;;;;;15.55;12.88;;;;;;;;;;5053392;28;20033;-63
2022/08/18 05:19:06;;;;;;;17.80;11.73;;;;;;;;;;5053332;28;20127;-63
2022/08/18 05:21:32;;;;;;;17.85;12.55;;;;;;;;;;5053000;28;20091;-62
2022/08/18 05:23:59;;;;;;;16.20;13.65;;;;;;;;;;5053078;28;20031;-63
2022/08/18 05:26:26;;;;;;;17.23;12.90;;;;;;;;;;5053141;28;20047;-63
2022/08/18 05:28:52;;;;;;;19.08;13.30;;;;;;;;;;5053144;28;20021;-63
2022/08/18 05:31:20;;;;;;;18.27;13.93;;;;;;;;;;5053069;28;20533;-63
2022/08/18 05:33:47;;;;;;;19.60;12.70;;;;;;;;;;5053128;28;20017;-63
2022/08/18 05:36:18;;;;;;;21.77;13.55;;;;;;;;;;5052880;28;20017;-62
2022/08/18 05:38:53;;;;;;;19.23;13.55;;;;;;;;;;5052796;28;20033;-63
2022/08/18 05:41:24;;;;;;;22.80;13.20;;;;;;;;;;5057679;28;20032;-63
2022/08/18 05:43:51;;;;;;;22.05;13.77;;;;;;;;;;5072968;28;20128;-64
2022/08/18 05:46:16;;;;;;;24.40;14.20;;;;;;;;;;5072807;28;20025;-63
2022/08/18 05:48:42;;;;;;;20.23;12.90;;;;;;;;;;5072940;28;20514;-63
2022/08/18 05:51:16;;;;;;;20.60;13.98;;;;;;;;;;5072516;28;20475;-64
2022/08/18 05:56:47;;;;;;;23.20;12.98;;;;;;;;;;5072200;28;20023;-63
2022/08/18 05:59:39;;;;;;;36.53;14.43;;;;;;;;;;5072638;28;20086;-63
2022/08/18 06:02:44;;;;;;;36.03;13.60;;;;;;;;;;5071536;28;20437;-63
2022/08/18 06:05:19;;;;;;;34.78;13.93;;;;;;;;;;5050290;28;20041;-64
2022/08/18 06:07:55;;;;;;;31.52;13.65;;;;;;;;;;5050171;28;20453;-63
2022/08/18 06:10:20;;;;;;;20.63;13.15;;;;;;;;;;5033765;28;20032;-63
2022/08/18 06:12:50;;;;;;;22.13;13.98;;;;;;;;;;5050309;28;20028;-64
2022/08/18 06:15:24;;;;;;;;;;;;;;;;;;5050656;28;20041;-64
2022/08/18 06:17:59;;;;;;;21.35;13.07;;;;;;;;;;5050250;28;19908;-62
2022/08/18 06:20:58;;;;;;;25.48;14.18;;;;;;;;;;5050161;28;20041;-64
2022/08/18 06:23:32;;;;;;;23.00;13.47;;;;;;;;;;5043003;28;20110;-63
2022/08/18 06:26:06;;;;;;;30.73;13.40;;;;;;;;;;5049972;28;20031;-63
2022/08/18 06:28:46;;;;;;;19.65;11.90;;;;;;;;;;5050152;28;20540;-63
2022/08/18 06:31:49;;;;;;;24.33;13.68;;;;;;;;;;5050158;28;20037;-63
2022/08/18 06:35:00;;;;;;;21.80;12.45;;;;;;;;;;5050180;28;20029;-63
2022/08/18 06:40:28;;;;;;;26.80;13.25;;;;;;;;;;5059640;28;20035;-63
2022/08/18 06:42:54;;;;;;;25.20;13.52;;;;;;;;;;5072107;28;20402;-63
2022/08/18 06:45:29;;;;;;;25.52;14.25;;;;;;;;;;5072203;28;20172;-63
2022/08/18 06:48:02;;;;;;;24.20;13.50;;;;;;;;;;5072031;28;20055;-63
2022/08/18 06:50:39;;;;;;;24.02;12.63;;;;;;;;;;5071924;28;20056;-63
2022/08/18 06:53:06;;;;;;;24.38;13.23;;;;;;;;;;5072059;28;20040;-64
2022/08/18 06:55:35;;;;;;;24.58;13.13;;;;;;;;;;5072168;28;20067;-63
2022/08/18 06:58:29;;;;;;;19.48;12.98;;;;;;;;;;5072020;28;20021;-63
2022/08/18 07:01:01;;;;;;;16.95;12.07;;;;;;;;;;5071971;28;20032;-62
2022/08/18 07:03:36;;;;;;;22.95;12.95;;;;;;;;;;5059014;28;20040;-64
2022/08/18 07:06:06;;;;;;;22.05;13.00;;;;;;;;;;5053870;28;20091;-64
2022/08/18 07:08:39;;;;;;;20.00;12.88;;;;;;;;;;5055295;28;20107;-64
2022/08/18 07:11:21;;;;;;;23.70;12.88;;;;;;;;;;5055472;28;20105;-63
2022/08/18 07:13:53;;;;;;;27.10;12.68;;;;;;;;;;5055385;28;20467;-63
2022/08/18 07:16:27;;;;;;;35.45;13.30;;;;;;;;;;5060177;28;20033;-64
2022/08/18 07:18:53;;;;;;;25.90;11.80;;;;;;;;;;5075323;28;20025;-63
2022/08/18 07:21:29;;;;;;;20.17;12.00;;;;;;;;;;5075236;28;20025;-64
2022/08/18 07:24:03;;;;;;;28.85;13.00;;;;;;;;;;5075282;28;20021;-64
2022/08/18 07:26:29;;;;;;;18.58;12.82;;;;;;;;;;5074024;28;20062;-64
2022/08/18 07:29:12;;;;;;;17.70;12.07;;;;;;;;;;5075024;28;20424;-65
2022/08/18 07:31:42;;;;;;;15.15;12.18;;;;;;;;;;5075088;28;20076;-65
2022/08/18 07:34:15;;;;;;;21.58;12.07;;;;;;;;;;5074654;28;20356;-65
2022/08/18 07:37:04;;;;;;;19.13;11.93;;;;;;;;;;5074995;28;20387;-63
2022/08/18 07:39:42;;;;;;;21.25;12.07;;;;;;;;;;5074838;28;20475;-65
2022/08/18 07:42:19;;;;;;;24.58;13.00;;;;;;;;;;5074027;28;20024;-64
2022/08/18 07:45:13;;;;;;;27.58;12.25;;;;;;;;;;5054113;28;20081;-64
2022/08/18 07:47:51;;;;;;;20.98;12.98;;;;;;;;;;5054780;28;20035;-64
2022/08/18 07:50:16;;;;;;;24.67;11.80;;;;;;;;;;5054333;28;20035;-65
2022/08/18 07:52:56;;;;;;;20.35;12.15;;;;;;;;;;5054350;28;20037;-63
2022/08/18 07:55:32;;;;;;;24.02;12.18;;;;;;;;;;5054556;28;20028;-64
2022/08/18 07:58:26;;;;;;;23.52;11.85;;;;;;;;;;5054319;28;20021;-64
2022/08/18 08:01:09;;;;;;;24.95;12.48;;;;;;;;;;5051153;28;20041;-65
2022/08/18 08:04:02;;;;;;;20.85;12.15;;;;;;;;;;5052963;28;20063;-64
2022/08/18 08:06:53;;;;;;;22.77;11.73;;;;;;;;;;5054395;28;20025;-64
2022/08/18 08:09:40;;;;;;;20.17;12.55;;;;;;;;;;5054363;28;20051;-64
2022/08/18 08:12:08;;;;;;;22.17;11.88;;;;;;;;;;5053949;28;20472;-63
2022/08/18 08:14:36;;;;;;;18.42;11.40;;;;;;;;;;5054275;28;20060;-65
2022/08/18 08:17:21;;;;;;;16.88;11.25;;;;;;;;;;5053750;28;20021;-64
2022/08/18 08:20:08;;;;;;;18.48;11.13;;;;;;;;;;5053212;28;20025;-63
2022/08/18 08:22:57;;;;;;;19.00;11.48;;;;;;;;;;5054035;28;20029;-64
2022/08/18 08:25:25;;;;;;;19.25;11.68;;;;;;;;;;5059280;28;20105;-64
2022/08/18 08:27:57;;;;;;;16.13;10.82;;;;;;;;;;5074056;28;20074;-64
2022/08/18 08:30:25;;;;;;;20.05;11.93;;;;;;;;;;5073875;28;20032;-63
2022/08/18 08:32:57;;;;;;;18.38;11.32;;;;;;;;;;5073685;28;20028;-66
2022/08/18 08:35:38;;;;;;;15.90;11.20;;;;;;;;;;5073487;28;20444;-64
2022/08/18 08:38:22;;;;;;;18.75;13.02;;;;;;;;;;5073546;28;20028;-63
2022/08/18 08:41:02;;;;;;;14.20;11.00;;;;;;;;;;5073436;28;20487;-64
2022/08/18 08:43:41;;;;;;;17.95;11.48;;;;;;;;;;5072762;28;20036;-63
2022/08/18 08:46:24;;;;;;;19.38;11.18;;;;;;;;;;5051855;28;20029;-64
2022/08/18 08:49:10;;;;;;;20.08;11.10;;;;;;;;;;5053640;28;20037;-64
2022/08/18 08:51:41;;;;;;;22.95;11.15;;;;;;;;;;5053353;28;20053;-64
2022/08/18 08:54:11;;;;;;;22.05;11.20;;;;;;;;;;5053596;28;20025;-65
2022/08/18 08:56:43;;;;;;;20.95;11.80;;;;;;;;;;5052182;28;20503;-64
2022/08/18 08:59:11;;;;;;;24.90;11.60;;;;;;;;;;5053621;28;20094;-64
2022/08/18 09:02:04;;;;;;;24.88;11.23;;;;;;;;;;5052540;28;20033;-65
2022/08/18 09:05:00;;;;;;;18.58;11.18;;;;;;;;;;5052488;28;20052;-64
2022/08/18 09:08:05;;;;;;;17.02;12.15;;;;;;;;;;5063520;28;20024;-65
2022/08/18 09:10:58;;;;;;;24.88;11.18;;;;;;;;;;5073318;28;20020;-64
2022/08/18 09:13:55;;;;;;;18.00;10.95;;;;;;;;;;5073241;28;20036;-64
2022/08/18 09:16:42;;;;;;;19.42;11.57;;;;;;;;;;5071741;28;20028;-66
2022/08/18 09:19:31;;;;;;;22.92;11.20;;;;;;;;;;5073190;28;20549;-66
2022/08/18 09:22:26;;;;;;;18.15;11.13;;;;;;;;;;5072836;28;20040;-64
2022/08/18 09:24:53;;;;;;;18.58;10.95;;;;;;;;;;5050719;28;20075;-65
2022/08/18 09:27:40;;;;;;;23.95;10.70;;;;;;;;;;5050771;28;20033;-64
2022/08/18 09:30:08;;;;;;;19.10;10.10;;;;;;;;;;5050174;28;20502;-64
2022/08/18 09:32:47;;;;;;;20.83;10.82;;;;;;;;;;5050602;28;20099;-64
2022/08/18 09:35:29;;;;;;;;;;;;;;;;;;5051174;28;20129;-66
2022/08/18 09:43:53;;;;;;;16.55;9.82;;;;;;;;;;5050496;28;20122;-65
2022/08/18 09:46:40;;;;;;;20.35;10.30;;;;;;;;;;5050752;28;20040;-66
2022/08/18 09:49:26;;;;;;;22.02;10.93;;;;;;;;;;5050448;28;20099;-66
2022/08/18 09:52:21;;;;;;;20.20;10.73;;;;;;;;;;5050087;28;20079;-64
2022/08/18 09:54:58;;;;;;;24.73;11.45;;;;;;;;;;5050121;28;20372;-65
2022/08/18 09:57:30;;;;;;;22.30;11.15;;;;;;;;;;5050356;28;20032;-65
2022/08/18 10:00:07;;;;;;;27.63;10.63;;;;;;;;;;5049847;28;20040;-65
2022/08/18 10:02:34;;;;;;;17.95;10.82;;;;;;;;;;5052407;28;20162;-66
2022/08/18 10:05:15;;;;;;;22.98;11.27;;;;;;;;;;5052206;28;20036;-65
2022/08/18 10:07:45;;;;;;;18.33;11.13;;;;;;;;;;5050022;28;20499;-66
2022/08/18 10:10:25;;;;;;;17.73;10.95;;;;;;;;;;5048621;28;20025;-65
2022/08/18 10:13:01;;;;;;;23.55;11.32;;;;;;;;;;5049021;28;20044;-66
2022/08/18 10:16:07;;;;;;;17.02;10.95;;;;;;;;;;5048936;28;20028;-65
2022/08/18 10:19:02;;;;;;;20.77;10.80;;;;;;;;;;5047907;28;20075;-65
2022/08/18 10:21:49;;;;;;;21.27;10.90;;;;;;;;;;5048048;28;20048;-64
2022/08/18 10:24:18;;;;;;;20.67;11.13;;;;;;;;;;5047880;28;20041;-65
2022/08/18 10:26:43;;;;;;;19.42;11.70;;;;;;;;;;5048439;28;20051;-65
2022/08/18 10:29:22;;;;;;;23.23;11.45;;;;;;;;;;5048519;28;20025;-64
2022/08/18 10:31:53;;;;;;;24.67;11.25;;;;;;;;;;5048258;28;20029;-64
2022/08/18 10:34:38;;;;;;;18.67;10.98;;;;;;;;;;5068734;28;20036;-64
2022/08/18 10:37:13;;;;;;;21.35;11.57;;;;;;;;;;5068222;28;20097;-65
2022/08/18 10:39:38;;;;;;;17.13;10.95;;;;;;;;;;5068443;28;20024;-64
2022/08/18 10:42:13;;;;;;;18.65;10.98;;;;;;;;;;5060175;28;20033;-63
2022/08/18 10:44:47;;;;;;;26.05;10.32;;;;;;;;;;5052294;28;20032;-64
2022/08/18 10:47:23;;;;;;;19.35;10.30;;;;;;;;;;5051774;28;20082;-64
2022/08/18 10:49:50;;;;;;;13.27;10.48;;;;;;;;;;5052808;28;20106;-65
2022/08/18 10:52:55;;;;;;;20.25;10.00;;;;;;;;;;5060029;28;20059;-64
2022/08/18 10:55:51;;;;;;;21.05;10.57;;;;;;;;;;5067451;28;20059;-64
2022/08/18 10:58:50;;;;;;;18.25;10.27;;;;;;;;;;5067139;28;20043;-64
2022/08/18 11:01:36;;;;;;;22.27;11.10;;;;;;;;;;5072845;28;20456;-64
2022/08/18 11:04:10;;;;;;;21.23;10.40;;;;;;;;;;5071923;28;20391;-66
2022/08/18 11:06:48;;;;;;;20.75;10.18;;;;;;;;;;5071853;28;20036;-64
2022/08/18 11:09:24;;;;;;;19.77;10.68;;;;;;;;;;5071972;28;20028;-64
2022/08/18 11:11:52;;;;;;;23.35;9.73;;;;;;;;;;5070808;28;20028;-65
2022/08/18 11:14:39;;;;;;;21.00;9.85;;;;;;;;;;5069786;28;21221;-64
2022/08/18 11:17:22;;;;;;;24.85;10.07;;;;;;;;;;5071335;28;20032;-64
2022/08/18 11:19:50;;;;;;;25.50;10.50;;;;;;;;;;5070969;28;20376;-64
2022/08/18 11:22:30;;;;;;;15.15;10.05;;;;;;;;;;5070502;28;20025;-64
2022/08/18 11:24:57;;;;;;;16.48;9.95;;;;;;;;;;5070842;28;20117;-64
2022/08/18 11:27:25;;;;;;;23.30;10.70;;;;;;;;;;5070669;28;20020;-65
2022/08/18 11:29:52;;;;;;;19.27;9.65;;;;;;;;;;5071240;28;20032;-65
2022/08/18 11:32:29;;;;;;;19.08;9.50;;;;;;;;;;5069588;28;20044;-64
2022/08/18 11:35:01;;;;;;;14.13;9.50;;;;;;;;;;5063688;28;20028;-66
2022/08/18 11:37:30;;;;;;;21.35;9.50;;;;;;;;;;5051106;28;20487;-66
2022/08/18 11:39:59;;;;;;;21.95;10.45;;;;;;;;;;5070663;28;20109;-66
2022/08/18 11:42:34;;;;;;;16.85;9.52;;;;;;;;;;5058848;28;20379;-65
2022/08/18 11:45:24;;;;;;;14.02;9.25;;;;;;;;;;5051779;28;20025;-65
2022/08/18 11:48:01;;;;;;;14.40;9.52;;;;;;;;;;5070424;28;20129;-64
2022/08/18 11:50:31;;;;;;;18.55;9.50;;;;;;;;;;5070332;28;20032;-64
2022/08/18 11:53:14;;;;;;;14.98;8.98;;;;;;;;;;5069701;28;20407;-65
2022/08/18 11:55:39;;;;;;;12.57;8.50;;;;;;;;;;5070879;28;20082;-65
2022/08/18 11:58:05;;;;;;;16.65;9.80;;;;;;;;;;5070708;28;20032;-64
2022/08/18 12:00:45;;;;;;;15.68;9.55;;;;;;;;;;5070220;28;20032;-64
2022/08/18 12:03:30;;;;;;;23.67;9.32;;;;;;;;;;5069605;28;20056;-65
2022/08/18 12:06:10;;;;;;;16.25;9.88;;;;;;;;;;5071156;28;20047;-65
2022/08/18 12:08:48;;;;;;;16.13;8.90;;;;;;;;;;5065806;28;20021;-65
2022/08/18 12:11:17;;;;;;;16.58;9.52;;;;;;;;;;5070059;28;20028;-65
2022/08/18 12:13:55;;;;;;;20.77;10.10;;;;;;;;;;5069581;28;20078;-65
2022/08/18 12:16:42;;;;;;;15.60;8.90;;;;;;;;;;5055709;28;20047;-66
2022/08/18 12:19:10;;;;;;;17.35;8.98;;;;;;;;;;5070933;28;20025;-65
2022/08/18 12:21:48;;;;;;;14.38;9.82;;;;;;;;;;5070285;28;20161;-65
2022/08/18 12:24:31;;;;;;;13.07;9.10;;;;;;;;;;5070911;28;20029;-65
2022/08/18 12:26:57;;;;;;;14.57;8.65;;;;;;;;;;5069358;28;20515;-64
2022/08/18 12:29:25;;;;;;;15.93;9.65;;;;;;;;;;5069699;28;20036;-64
2022/08/18 12:31:54;;;;;;;16.38;9.43;;;;;;;;;;5069545;28;20039;-66
2022/08/18 12:34:23;;;;;;;16.73;9.10;;;;;;;;;;5069417;28;20111;-64
2022/08/18 12:36:54;;;;;;;16.15;8.98;;;;;;;;;;5064445;28;20032;-65
2022/08/18 12:39:20;;;;;;;13.80;8.63;;;;;;;;;;5049252;28;20025;-64
2022/08/18 12:41:46;;;;;;;15.02;8.73;;;;;;;;;;5057098;28;20600;-64
2022/08/18 12:44:12;;;;;;;14.30;9.10;;;;;;;;;;5069077;28;20063;-65
2022/08/18 12:46:38;;;;;;;13.70;9.13;;;;;;;;;;5069964;28;20055;-65
2022/08/18 12:49:04;;;;;;;16.08;8.20;;;;;;;;;;5069445;28;20382;-64
2022/08/18 12:51:30;;;;;;;11.57;8.23;;;;;;;;;;5065999;28;20049;-65
2022/08/18 12:53:56;;;;;;;10.45;7.57;;;;;;;;;;5053135;28;20048;-65
2022/08/18 12:56:29;;;;;;;12.45;8.73;;;;;;;;;;5053689;28;20036;-65
2022/08/18 12:58:56;;;;;;;11.02;8.10;;;;;;;;;;5068536;28;20039;-64
2022/08/18 13:01:23;;;;;;;11.57;9.23;;;;;;;;;;5069523;28;20453;-65
2022/08/18 13:03:52;;;;;;;10.50;8.05;;;;;;;;;;5070157;28;20125;-65
2022/08/18 13:06:18;;;;;;;11.75;7.85;;;;;;;;;;5069584;28;20075;-65
2022/08/18 13:08:43;;;;;;;11.02;7.95;;;;;;;;;;5053211;28;20056;-65
2022/08/18 13:11:09;;;;;;;12.43;7.88;;;;;;;;;;5049715;28;20356;-65
2022/08/18 13:13:39;;;;;;;10.88;7.95;;;;;;;;;;5058115;28;20037;-64
2022/08/18 13:16:07;;;;;;;13.55;8.65;;;;;;;;;;5050682;28;20033;-64
2022/08/18 13:18:33;;;;;;;16.85;8.18;;;;;;;;;;5049699;28;20499;-64
2022/08/18 13:21:00;;;;;;;19.17;8.60;;;;;;;;;;5050303;28;20090;-64
2022/08/18 13:23:26;;;;;;;10.93;8.07;;;;;;;;;;5050216;28;20093;-63
2022/08/18 13:25:52;;;;;;;12.77;7.82;;;;;;;;;;5050735;28;20028;-64
2022/08/18 13:28:17;;;;;;;11.05;7.60;;;;;;;;;;5049286;28;20029;-63
2022/08/18 13:30:45;;;;;;;12.48;8.13;;;;;;;;;;5050330;28;20428;-64
2022/08/18 13:33:10;;;;;;;12.77;8.18;;;;;;;;;;5050663;28;20534;-64
2022/08/18 13:35:36;;;;;;;12.00;7.57;;;;;;;;;;5062943;28;20025;-64
2022/08/18 13:38:04;;;;;;;9.55;7.70;;;;;;;;;;5049974;28;20029;-63
2022/08/18 13:40:30;;;;;;;12.50;7.65;;;;;;;;;;5050155;28;20119;-64
2022/08/18 13:42:55;;;;;;;10.90;8.18;;;;;;;;;;5049772;28;20079;-64
2022/08/18 13:45:21;;;;;;;9.70;7.78;;;;;;;;;;5050640;28;20049;-63
2022/08/18 13:47:48;;;;;;;14.07;7.60;;;;;;;;;;5062128;28;20147;-65
2022/08/18 13:50:15;;;;;;;14.68;6.70;;;;;;;;;;5050016;28;20068;-64
2022/08/18 13:52:41;;;;;;;12.27;6.45;;;;;;;;;;5048177;28;20044;-65
2022/08/18 13:55:11;;;;;;;17.67;6.50;;;;;;;;;;5051000;28;20049;-64
2022/08/18 13:57:38;;;;;;;10.07;5.18;;;;;;;;;;5050678;28;20031;-66
2022/08/18 14:00:07;;;;;;;6.45;3.88;;;;;;;;;;5050290;28;20062;-66
2022/08/18 14:02:33;;;;;;;7.17;3.40;;;;;;;;;;5049449;28;20037;-63
2022/08/18 14:04:58;;;;;;;13.52;5.13;;;;;;;;;;5049951;28;20040;-63
2022/08/18 14:07:23;;;;;;;12.23;6.35;;;;;;;;;;5049642;28;20033;-63
2022/08/18 14:09:49;;;;;;;12.75;6.88;;;;;;;;;;5049116;28;20465;-63
2022/08/18 14:12:21;;;;;;;11.02;7.78;;;;;;;;;;5049237;28;20029;-63
2022/08/18 14:14:47;;;;;;;10.30;7.15;;;;;;;;;;5054895;28;20029;-63
2022/08/18 14:17:13;;;;;;;12.57;8.35;;;;;;;;;;5049203;28;20412;-63
2022/08/18 14:27:51;;;;;;;15.68;8.80;;;;;;;;;;5061306;28;20113;-63
2022/08/18 14:30:17;;;;;;;12.55;9.43;;;;;;;;;;5056704;28;20028;-63
2022/08/18 14:32:44;;;;;;;17.80;9.73;;;;;;;;;;5064989;28;20033;-63
2022/08/18 14:35:11;;;;;;;15.95;10.32;;;;;;;;;;5069304;28;20031;-66
2022/08/18 14:37:37;;;;;;;13.48;10.02;;;;;;;;;;5049853;28;20040;-66
2022/08/18 14:40:06;;;;;;;18.48;10.50;;;;;;;;;;5049789;28;20117;-66
2022/08/18 14:42:32;;;;;;;12.93;9.23;;;;;;;;;;5050864;28;20048;-65
2022/08/18 14:44:58;;;;;;;13.60;9.63;;;;;;;;;;5051494;28;20033;-63
2022/08/18 14:47:26;;;;;;;16.88;9.82;;;;;;;;;;5050660;28;20442;-64
2022/08/18 14:49:52;;;;;;;14.82;9.65;;;;;;;;;;5051634;28;20075;-65
2022/08/18 14:52:19;;;;;;;14.90;8.88;;;;;;;;;;5051780;28;20076;-62
2022/08/18 14:54:45;;;;;;;11.80;8.25;;;;;;;;;;5052065;28;20498;-65
2022/08/18 14:57:10;;;;;;;12.52;8.52;;;;;;;;;;5050602;28;20021;-64
2022/08/18 14:59:37;;;;;;;9.85;8.35;;;;;;;;;;5050270;28;20021;-62
2022/08/18 15:02:03;;;;;;;12.40;8.63;;;;;;;;;;5049824;28;20057;-62
2022/08/18 15:04:29;;;;;;;16.08;8.90;;;;;;;;;;5050304;28;20025;-64
2022/08/18 15:06:55;;;;;;;18.33;9.20;;;;;;;;;;5051210;28;20386;-62
2022/08/18 15:09:21;;;;;;;15.32;8.77;;;;;;;;;;5051323;28;20013;-66
2022/08/18 15:11:47;;;;;;;13.43;8.95;;;;;;;;;;5051735;28;20380;-63
2022/08/18 15:14:14;;;;;;;15.35;9.82;;;;;;;;;;5052009;28;20029;-65
2022/08/18 15:16:39;;;;;;;14.00;9.50;;;;;;;;;;5051941;28;20083;-65
2022/08/18 15:19:05;;;;;;;14.63;9.18;;;;;;;;;;5051719;28;20037;-65
2022/08/18 15:27:01;;;;;;;17.50;11.02;;;;;;;;;;5049008;28;20434;-65
2022/08/18 15:29:27;;;;;;;14.85;11.25;;;;;;;;;;5055245;28;20025;-64